createdAt,value
2017-12-05T00:00:10.572Z,0
2017-12-05T00:01:18.672Z,0
2017-12-05T00:02:26.756Z,0
2017-12-05T00:03:34.874Z,0
2017-12-05T00:04:42.959Z,0
2017-12-05T00:05:51.119Z,0
2017-12-05T00:06:59.133Z,0
2017-12-05T00:08:07.221Z,0
2017-12-05T00:09:15.313Z,0
2017-12-05T00:10:23.397Z,0
2017-12-05T00:11:31.482Z,0
2017-12-05T00:12:39.594Z,0
2017-12-05T00:13:47.658Z,0
2017-12-05T00:14:55.823Z,0
2017-12-05T00:16:03.911Z,0
2017-12-05T00:17:11.999Z,0
2017-12-05T00:18:20.104Z,0
2017-12-05T00:19:28.180Z,0
2017-12-05T00:20:36.267Z,0
2017-12-05T00:21:44.361Z,0
2017-12-05T00:22:52.443Z,0
2017-12-05T00:24:00.531Z,0
2017-12-05T00:25:08.620Z,0
2017-12-05T00:26:16.707Z,0
2017-12-05T00:27:24.793Z,0
2017-12-05T00:28:32.880Z,0
2017-12-05T00:29:40.967Z,0
2017-12-05T00:30:49.055Z,0
2017-12-05T00:31:57.161Z,0
2017-12-05T00:33:05.234Z,0
2017-12-05T00:34:13.318Z,0
2017-12-05T00:35:21.407Z,0
2017-12-05T00:36:29.494Z,0
2017-12-05T00:37:37.580Z,0
2017-12-05T00:38:45.667Z,0
2017-12-05T00:39:53.754Z,0
2017-12-05T00:41:01.842Z,0
2017-12-05T00:42:10.001Z,0
2017-12-05T00:43:18.091Z,0
2017-12-05T00:44:26.185Z,0
2017-12-05T00:45:34.268Z,0
2017-12-05T00:46:42.444Z,0
2017-12-05T00:47:50.444Z,0
2017-12-05T00:48:58.532Z,0
2017-12-05T00:50:06.623Z,0
2017-12-05T00:51:14.707Z,0
2017-12-05T00:52:22.792Z,0
2017-12-05T00:53:30.881Z,0
2017-12-05T00:54:38.969Z,0
2017-12-05T00:55:47.057Z,0
2017-12-05T00:56:55.148Z,0
2017-12-05T00:58:03.231Z,0
2017-12-05T00:59:11.343Z,0
2017-12-05T01:00:19.415Z,0
2017-12-05T01:01:27.523Z,0
2017-12-05T01:02:35.613Z,0
2017-12-05T01:03:43.705Z,0
2017-12-05T01:04:51.786Z,0
2017-12-05T01:05:59.873Z,0
2017-12-05T01:07:07.964Z,0
2017-12-05T01:08:16.055Z,0
2017-12-05T01:09:24.274Z,0
2017-12-05T01:10:32.405Z,0
2017-12-05T01:11:40.553Z,0
2017-12-05T01:12:48.643Z,0
2017-12-05T01:13:56.731Z,0
2017-12-05T01:15:04.818Z,0
2017-12-05T01:16:12.903Z,0
2017-12-05T01:17:20.990Z,0
2017-12-05T01:18:29.078Z,0
2017-12-05T01:19:37.166Z,0
2017-12-05T01:20:45.257Z,0
2017-12-05T01:21:53.345Z,0
2017-12-05T01:23:01.431Z,0
2017-12-05T01:24:09.516Z,0
2017-12-05T01:25:17.641Z,0
2017-12-05T01:26:25.728Z,0
2017-12-05T01:27:33.815Z,0
2017-12-05T01:28:41.903Z,0
2017-12-05T01:29:49.994Z,0
2017-12-05T01:30:58.084Z,0
2017-12-05T01:32:06.189Z,0
2017-12-05T01:33:14.258Z,0
2017-12-05T01:34:22.347Z,0
2017-12-05T01:35:30.434Z,0
2017-12-05T01:36:38.521Z,0
2017-12-05T01:37:46.612Z,0
2017-12-05T01:38:54.701Z,0
2017-12-05T01:40:02.928Z,0
2017-12-05T01:41:10.874Z,0
2017-12-05T01:42:18.960Z,0
2017-12-05T01:43:27.057Z,0
2017-12-05T01:44:35.141Z,0
2017-12-05T01:45:43.232Z,0
2017-12-05T01:46:51.322Z,0
2017-12-05T01:47:59.410Z,0
2017-12-05T01:49:07.493Z,0
2017-12-05T01:50:15.581Z,0
2017-12-05T01:51:23.669Z,0
2017-12-05T01:52:31.756Z,0
2017-12-05T01:53:39.844Z,0
2017-12-05T01:54:47.932Z,0
2017-12-05T01:55:56.024Z,0
2017-12-05T01:57:04.107Z,0
2017-12-05T01:58:12.196Z,0
2017-12-05T01:59:20.301Z,0
2017-12-05T02:00:28.368Z,0
2017-12-05T02:01:36.456Z,0
2017-12-05T02:02:44.565Z,0
2017-12-05T02:03:52.667Z,0
2017-12-05T02:05:00.751Z,0
2017-12-05T02:06:08.845Z,0
2017-12-05T02:07:16.944Z,0
2017-12-05T02:08:25.026Z,0
2017-12-05T02:09:33.489Z,0
2017-12-05T02:10:41.276Z,0
2017-12-05T02:11:49.363Z,0
2017-12-05T02:12:57.459Z,0
2017-12-05T02:14:05.538Z,0
2017-12-05T02:15:13.623Z,0
2017-12-05T02:16:21.721Z,0
2017-12-05T02:17:29.813Z,0
2017-12-05T02:18:37.901Z,0
2017-12-05T02:19:45.985Z,0
2017-12-05T02:20:54.073Z,0
2017-12-05T02:22:02.185Z,0
2017-12-05T02:23:10.251Z,0
2017-12-05T02:24:18.337Z,0
2017-12-05T02:25:26.429Z,0
2017-12-05T02:26:34.522Z,0
2017-12-05T02:27:42.616Z,0
2017-12-05T02:28:50.700Z,0
2017-12-05T02:29:58.797Z,0
2017-12-05T02:31:06.882Z,0
2017-12-05T02:32:15.055Z,0
2017-12-05T02:33:23.076Z,0
2017-12-05T02:34:31.163Z,0
2017-12-05T02:35:39.259Z,0
2017-12-05T02:36:47.364Z,0
2017-12-05T02:37:55.436Z,0
2017-12-05T02:39:03.587Z,0
2017-12-05T02:40:11.673Z,0
2017-12-05T02:41:19.762Z,0
2017-12-05T02:42:27.853Z,0
2017-12-05T02:43:36.210Z,0
2017-12-05T02:44:44.297Z,0
2017-12-05T02:45:52.392Z,0
2017-12-05T02:47:00.501Z,0
2017-12-05T02:48:08.568Z,0
2017-12-05T02:49:16.654Z,0
2017-12-05T02:50:24.741Z,0
2017-12-05T02:51:32.827Z,0
2017-12-05T02:52:40.916Z,0
2017-12-05T02:53:49.002Z,0
2017-12-05T02:54:57.091Z,0
2017-12-05T02:56:05.186Z,0
2017-12-05T02:57:13.269Z,0
2017-12-05T02:58:21.375Z,0
2017-12-05T02:59:29.453Z,0
2017-12-05T03:00:37.541Z,0
2017-12-05T03:01:45.631Z,0
2017-12-05T03:02:53.716Z,0
2017-12-05T03:04:01.804Z,0
2017-12-05T03:05:09.892Z,0
2017-12-05T03:06:17.977Z,0
2017-12-05T03:07:26.064Z,0
2017-12-05T03:08:34.154Z,0
2017-12-05T03:09:42.242Z,0
2017-12-05T03:10:50.343Z,0
2017-12-05T03:11:58.415Z,0
2017-12-05T03:13:06.500Z,0
2017-12-05T03:14:14.590Z,0
2017-12-05T03:15:22.678Z,0
2017-12-05T03:16:30.808Z,0
2017-12-05T03:17:38.896Z,0
2017-12-05T03:18:46.984Z,0
2017-12-05T03:19:55.069Z,0
2017-12-05T03:21:03.164Z,0
2017-12-05T03:22:11.248Z,0
2017-12-05T03:23:19.334Z,0
2017-12-05T03:24:27.519Z,0
2017-12-05T03:25:35.507Z,0
2017-12-05T03:26:43.595Z,0
2017-12-05T03:27:51.683Z,0
2017-12-05T03:28:59.769Z,0
2017-12-05T03:30:07.893Z,0
2017-12-05T03:31:15.942Z,0
2017-12-05T03:32:24.032Z,0
2017-12-05T03:33:32.137Z,0
2017-12-05T03:34:40.202Z,0
2017-12-05T03:35:48.290Z,0
2017-12-05T03:36:56.379Z,0
2017-12-05T03:38:04.466Z,0
2017-12-05T03:39:12.553Z,0
2017-12-05T03:40:20.637Z,0
2017-12-05T03:41:28.725Z,0
2017-12-05T03:42:36.826Z,0
2017-12-05T03:43:44.910Z,0
2017-12-05T03:44:52.996Z,0
2017-12-05T03:46:01.084Z,0
2017-12-05T03:47:09.251Z,0
2017-12-05T03:48:17.261Z,0
2017-12-05T03:49:25.344Z,0
2017-12-05T03:50:33.431Z,0
2017-12-05T03:51:41.527Z,0
2017-12-05T03:52:49.702Z,0
2017-12-05T03:53:57.690Z,0
2017-12-05T03:55:05.776Z,0
2017-12-05T03:56:13.885Z,0
2017-12-05T03:57:21.948Z,0
2017-12-05T03:58:30.047Z,0
2017-12-05T03:59:38.126Z,0
2017-12-05T04:00:46.209Z,0
2017-12-05T04:01:54.297Z,0
2017-12-05T04:03:02.383Z,0
2017-12-05T04:04:10.464Z,0
2017-12-05T04:05:18.595Z,0
2017-12-05T04:06:26.639Z,0
2017-12-05T04:07:34.730Z,0
2017-12-05T04:08:42.815Z,0
2017-12-05T04:09:50.902Z,0
2017-12-05T04:10:58.989Z,0
2017-12-05T04:12:07.074Z,0
2017-12-05T04:13:15.161Z,0
2017-12-05T04:14:23.250Z,0
2017-12-05T04:15:31.332Z,0
2017-12-05T04:16:39.420Z,0
2017-12-05T04:17:47.503Z,0
2017-12-05T04:18:55.594Z,0
2017-12-05T04:20:03.736Z,0
2017-12-05T04:21:11.764Z,0
2017-12-05T04:22:19.848Z,0
2017-12-05T04:23:27.937Z,0
2017-12-05T04:24:36.026Z,0
2017-12-05T04:25:44.112Z,0
2017-12-05T04:26:52.195Z,0
2017-12-05T04:28:00.280Z,0
2017-12-05T04:29:08.368Z,0
2017-12-05T04:30:16.450Z,0
2017-12-05T04:31:24.540Z,0
2017-12-05T04:32:32.621Z,0
2017-12-05T04:33:40.708Z,0
2017-12-05T04:34:48.794Z,0
2017-12-05T04:35:56.881Z,0
2017-12-05T04:37:04.966Z,0
2017-12-05T04:38:13.071Z,0
2017-12-05T04:39:21.140Z,0
2017-12-05T04:40:29.225Z,0
2017-12-05T04:41:37.408Z,0
2017-12-05T04:42:45.395Z,0
2017-12-05T04:43:53.483Z,0
2017-12-05T04:45:01.568Z,0
2017-12-05T04:46:09.655Z,0
2017-12-05T04:47:17.740Z,0
2017-12-05T04:48:25.832Z,0
2017-12-05T04:49:33.917Z,0
2017-12-05T04:50:41.997Z,0
2017-12-05T04:51:50.172Z,0
2017-12-05T04:52:58.174Z,0
2017-12-05T04:54:06.255Z,0
2017-12-05T04:55:14.342Z,0
2017-12-05T04:56:22.427Z,0
2017-12-05T04:57:30.515Z,0
2017-12-05T04:58:38.640Z,0
2017-12-05T04:59:46.740Z,0
2017-12-05T05:00:54.849Z,0
2017-12-05T05:02:02.919Z,0
2017-12-05T05:03:11.685Z,0
2017-12-05T05:04:19.102Z,0
2017-12-05T05:05:27.183Z,0
2017-12-05T05:06:35.279Z,0
2017-12-05T05:07:43.364Z,0
2017-12-05T05:08:51.490Z,0
2017-12-05T05:09:59.535Z,0
2017-12-05T05:11:07.620Z,0
2017-12-05T05:12:15.708Z,0
2017-12-05T05:13:23.817Z,0
2017-12-05T05:14:31.882Z,0
2017-12-05T05:15:39.971Z,0
2017-12-05T05:16:48.054Z,0
2017-12-05T05:17:56.209Z,0
2017-12-05T05:19:04.664Z,0
2017-12-05T05:20:25.021Z,0
2017-12-05T05:21:32.596Z,0
2017-12-05T05:22:41.198Z,0
2017-12-05T05:23:48.993Z,0
2017-12-05T05:24:56.890Z,0
2017-12-05T05:26:04.985Z,0
2017-12-05T05:27:13.077Z,0
2017-12-05T05:28:21.147Z,0
2017-12-05T05:29:30.002Z,0
2017-12-05T05:30:38.030Z,0
2017-12-05T05:31:46.118Z,0
2017-12-05T05:32:54.221Z,0
2017-12-05T05:34:02.292Z,0
2017-12-05T05:35:10.375Z,0
2017-12-05T05:36:18.460Z,0
2017-12-05T05:37:26.549Z,0
2017-12-05T05:38:34.630Z,0
2017-12-05T05:39:42.785Z,0
2017-12-05T05:40:50.803Z,0
2017-12-05T05:41:58.887Z,0
2017-12-05T05:43:06.979Z,0
2017-12-05T05:44:15.062Z,0
2017-12-05T05:45:23.179Z,0
2017-12-05T05:46:31.231Z,0
2017-12-05T05:47:39.317Z,0
2017-12-05T05:48:47.408Z,0
2017-12-05T05:49:55.490Z,0
2017-12-05T05:51:03.576Z,0
2017-12-05T05:52:11.701Z,0
2017-12-05T05:53:19.837Z,0
2017-12-05T05:54:27.919Z,0
2017-12-05T05:55:36.005Z,0
2017-12-05T05:56:44.091Z,0
2017-12-05T05:57:52.258Z,0
2017-12-05T05:59:00.268Z,0
2017-12-05T06:00:08.352Z,0
2017-12-05T06:01:16.440Z,0
2017-12-05T06:02:24.525Z,0
2017-12-05T06:03:32.610Z,0
2017-12-05T06:04:40.696Z,0
2017-12-05T06:05:48.777Z,0
2017-12-05T06:06:56.864Z,0
2017-12-05T06:08:04.950Z,0
2017-12-05T06:09:13.095Z,0
2017-12-05T06:10:21.123Z,0
2017-12-05T06:11:29.206Z,0
2017-12-05T06:12:37.293Z,0
2017-12-05T06:13:45.374Z,0
2017-12-05T06:14:53.464Z,0
2017-12-05T06:16:01.551Z,0
2017-12-05T06:17:09.636Z,0
2017-12-05T06:18:17.727Z,0
2017-12-05T06:19:25.814Z,0
2017-12-05T06:20:33.902Z,0
2017-12-05T06:21:41.985Z,0
2017-12-05T06:22:50.072Z,0
2017-12-05T06:23:58.175Z,0
2017-12-05T06:25:06.245Z,0
2017-12-05T06:26:14.330Z,0
2017-12-05T06:27:22.416Z,0
2017-12-05T06:28:30.501Z,0
2017-12-05T06:29:38.587Z,0
2017-12-05T06:30:46.673Z,0
2017-12-05T06:31:54.759Z,0
2017-12-05T06:33:02.844Z,0
2017-12-05T06:34:10.931Z,0
2017-12-05T06:35:19.023Z,0
2017-12-05T06:36:27.108Z,0
2017-12-05T06:37:35.193Z,0
2017-12-05T06:38:43.286Z,0
2017-12-05T06:39:51.367Z,0
2017-12-05T06:40:59.451Z,0
2017-12-05T06:42:07.539Z,0
2017-12-05T06:43:15.622Z,0
2017-12-05T06:44:23.751Z,0
2017-12-05T06:45:31.793Z,0
2017-12-05T06:46:39.881Z,0
2017-12-05T06:47:47.965Z,0
2017-12-05T06:48:56.072Z,0
2017-12-05T06:50:04.141Z,0
2017-12-05T06:51:12.224Z,0
2017-12-05T06:52:20.307Z,0
2017-12-05T06:53:28.397Z,0
2017-12-05T06:54:36.478Z,4
2017-12-05T06:55:44.563Z,0
2017-12-05T06:56:52.651Z,0
2017-12-05T06:58:00.735Z,0
2017-12-05T06:59:08.822Z,0
2017-12-05T07:00:16.908Z,4
2017-12-05T07:01:24.995Z,4
2017-12-05T07:02:33.081Z,4
2017-12-05T07:03:41.687Z,4
2017-12-05T07:04:49.258Z,0
2017-12-05T07:05:57.337Z,0
2017-12-05T07:07:05.422Z,0
2017-12-05T07:08:13.516Z,4
2017-12-05T07:09:21.596Z,4
2017-12-05T07:10:29.683Z,4
2017-12-05T07:11:37.767Z,4
2017-12-05T07:12:45.853Z,4
2017-12-05T07:13:53.940Z,0
2017-12-05T07:15:02.249Z,4
2017-12-05T07:16:10.366Z,4
2017-12-05T07:17:18.425Z,4
2017-12-05T07:18:26.507Z,4
2017-12-05T07:19:34.592Z,4
2017-12-05T07:20:42.679Z,8
2017-12-05T07:21:50.766Z,4
2017-12-05T07:22:58.859Z,8
2017-12-05T07:24:06.962Z,8
2017-12-05T07:25:15.048Z,8
2017-12-05T07:26:23.138Z,8
2017-12-05T07:27:31.225Z,8
2017-12-05T07:28:39.319Z,8
2017-12-05T07:29:47.422Z,4
2017-12-05T07:30:55.492Z,8
2017-12-05T07:32:03.579Z,8
2017-12-05T07:33:11.659Z,4
2017-12-05T07:34:19.878Z,8
2017-12-05T07:35:27.964Z,8
2017-12-05T07:36:36.049Z,8
2017-12-05T07:37:44.135Z,8
2017-12-05T07:38:52.224Z,8
2017-12-05T07:40:00.307Z,4
2017-12-05T07:41:08.410Z,8
2017-12-05T07:42:16.478Z,8
2017-12-05T07:43:24.564Z,8
2017-12-05T07:44:32.652Z,8
2017-12-05T07:45:40.746Z,8
2017-12-05T07:46:48.831Z,8
2017-12-05T07:47:56.921Z,8
2017-12-05T07:49:05.011Z,8
2017-12-05T07:50:13.095Z,8
2017-12-05T07:51:21.177Z,8
2017-12-05T07:52:29.267Z,8
2017-12-05T07:53:37.351Z,8
2017-12-05T07:54:45.432Z,8
2017-12-05T07:55:53.521Z,8
2017-12-05T07:57:01.607Z,8
2017-12-05T07:58:09.692Z,8
2017-12-05T07:59:17.783Z,12
2017-12-05T08:00:25.865Z,8
2017-12-05T08:01:33.950Z,8
2017-12-05T08:02:42.038Z,12
2017-12-05T08:03:50.127Z,12
2017-12-05T08:04:58.229Z,12
2017-12-05T08:06:06.307Z,12
2017-12-05T08:07:14.424Z,16
2017-12-05T08:08:22.505Z,16
2017-12-05T08:09:30.593Z,16
2017-12-05T08:10:38.680Z,12
2017-12-05T08:11:46.775Z,12
2017-12-05T08:12:54.851Z,16
2017-12-05T08:14:02.935Z,16
2017-12-05T08:15:11.027Z,16
2017-12-05T08:16:19.113Z,20
2017-12-05T08:17:27.197Z,20
2017-12-05T08:18:35.282Z,16
2017-12-05T08:19:43.371Z,12
2017-12-05T08:20:51.455Z,16
2017-12-05T08:21:59.544Z,16
2017-12-05T08:23:07.770Z,16
2017-12-05T08:24:15.857Z,12
2017-12-05T08:25:23.942Z,12
2017-12-05T08:26:32.030Z,12
2017-12-05T08:27:40.129Z,12
2017-12-05T08:28:48.213Z,16
2017-12-05T08:29:56.302Z,20
2017-12-05T08:31:04.384Z,20
2017-12-05T08:32:12.467Z,16
2017-12-05T08:33:20.557Z,20
2017-12-05T08:34:28.644Z,24
2017-12-05T08:35:36.730Z,28
2017-12-05T08:36:44.815Z,28
2017-12-05T08:37:52.905Z,32
2017-12-05T08:39:01.002Z,36
2017-12-05T08:40:09.074Z,40
2017-12-05T08:41:17.175Z,40
2017-12-05T08:42:25.263Z,44
2017-12-05T08:43:33.331Z,40
2017-12-05T08:44:41.417Z,40
2017-12-05T08:45:49.503Z,48
2017-12-05T08:46:57.633Z,44
2017-12-05T08:48:05.689Z,48
2017-12-05T08:49:13.771Z,44
2017-12-05T08:50:21.858Z,44
2017-12-05T08:51:29.943Z,48
2017-12-05T08:52:38.037Z,48
2017-12-05T08:53:46.123Z,48
2017-12-05T08:54:54.209Z,44
2017-12-05T08:56:02.291Z,40
2017-12-05T08:57:10.382Z,36
2017-12-05T08:58:18.465Z,32
2017-12-05T08:59:26.547Z,32
2017-12-05T09:00:34.637Z,32
2017-12-05T09:01:42.724Z,32
2017-12-05T09:02:50.810Z,32
2017-12-05T09:03:58.896Z,32
2017-12-05T09:05:06.981Z,32
2017-12-05T09:06:15.087Z,28
2017-12-05T09:07:23.152Z,32
2017-12-05T09:08:31.238Z,32
2017-12-05T09:09:39.325Z,28
2017-12-05T09:10:47.415Z,28
2017-12-05T09:11:55.510Z,28
2017-12-05T09:13:03.583Z,28
2017-12-05T09:14:11.670Z,28
2017-12-05T09:15:19.757Z,24
2017-12-05T09:16:27.844Z,28
2017-12-05T09:17:35.930Z,24
2017-12-05T09:18:44.016Z,28
2017-12-05T09:19:52.107Z,24
2017-12-05T09:21:00.188Z,24
2017-12-05T09:22:08.276Z,24
2017-12-05T09:23:16.361Z,24
2017-12-05T09:24:25.040Z,24
2017-12-05T09:25:33.228Z,24
2017-12-05T09:26:41.340Z,24
2017-12-05T09:27:49.408Z,24
2017-12-05T09:28:57.496Z,24
2017-12-05T09:30:05.581Z,28
2017-12-05T09:31:13.669Z,28
2017-12-05T09:32:21.756Z,24
2017-12-05T09:33:29.839Z,24
2017-12-05T09:34:37.924Z,28
2017-12-05T09:35:46.013Z,28
2017-12-05T09:36:54.114Z,36
2017-12-05T09:38:02.190Z,40
2017-12-05T09:39:10.275Z,44
2017-12-05T09:40:18.360Z,48
2017-12-05T09:41:26.445Z,52
2017-12-05T09:42:34.532Z,48
2017-12-05T09:43:42.615Z,48
2017-12-05T09:44:50.700Z,52
2017-12-05T09:45:58.790Z,52
2017-12-05T09:47:06.874Z,56
2017-12-05T09:48:14.960Z,56
2017-12-05T09:49:23.080Z,52
2017-12-05T09:50:31.155Z,56
2017-12-05T09:51:39.243Z,52
2017-12-05T09:52:47.331Z,56
2017-12-05T09:53:55.417Z,56
2017-12-05T09:55:03.507Z,48
2017-12-05T09:56:11.610Z,52
2017-12-05T09:57:19.679Z,48
2017-12-05T09:58:27.774Z,48
2017-12-05T09:59:35.859Z,48
2017-12-05T10:00:43.953Z,52
2017-12-05T10:01:52.040Z,52
2017-12-05T10:03:00.127Z,52
2017-12-05T10:04:08.215Z,52
2017-12-05T10:05:16.303Z,52
2017-12-05T10:06:24.384Z,52
2017-12-05T10:07:32.490Z,52
2017-12-05T10:08:40.563Z,52
2017-12-05T10:09:48.654Z,52
2017-12-05T10:10:56.754Z,52
2017-12-05T10:12:04.827Z,56
2017-12-05T10:13:12.912Z,48
2017-12-05T10:14:21.024Z,48
2017-12-05T10:15:29.095Z,48
2017-12-05T10:16:37.180Z,48
2017-12-05T10:17:45.264Z,44
2017-12-05T10:18:53.349Z,44
2017-12-05T10:20:01.438Z,48
2017-12-05T10:21:09.524Z,52
2017-12-05T10:22:17.610Z,48
2017-12-05T10:23:25.699Z,48
2017-12-05T10:24:33.782Z,44
2017-12-05T10:25:41.868Z,48
2017-12-05T10:26:49.962Z,44
2017-12-05T10:27:58.051Z,48
2017-12-05T10:29:06.135Z,48
2017-12-05T10:30:14.217Z,44
2017-12-05T10:31:22.310Z,48
2017-12-05T10:32:30.392Z,52
2017-12-05T10:33:38.475Z,56
2017-12-05T10:34:46.564Z,56
2017-12-05T10:35:54.727Z,64
2017-12-05T10:37:02.813Z,68
2017-12-05T10:38:10.899Z,48
2017-12-05T10:39:19.003Z,48
2017-12-05T10:40:27.095Z,44
2017-12-05T10:41:35.182Z,40
2017-12-05T10:42:43.271Z,40
2017-12-05T10:43:51.422Z,40
2017-12-05T10:44:59.440Z,40
2017-12-05T10:46:07.528Z,32
2017-12-05T10:47:15.611Z,36
2017-12-05T10:48:23.699Z,32
2017-12-05T10:49:31.788Z,32
2017-12-05T10:50:39.870Z,32
2017-12-05T10:51:47.956Z,32
2017-12-05T10:52:56.040Z,36
2017-12-05T10:54:04.132Z,36
2017-12-05T10:55:12.213Z,32
2017-12-05T10:56:20.300Z,32
2017-12-05T10:57:28.387Z,32
2017-12-05T10:58:36.471Z,36
2017-12-05T10:59:44.556Z,36
2017-12-05T11:00:52.644Z,40
2017-12-05T11:02:00.728Z,36
2017-12-05T11:03:08.813Z,36
2017-12-05T11:04:16.902Z,36
2017-12-05T11:05:24.986Z,36
2017-12-05T11:06:33.070Z,32
2017-12-05T11:07:41.159Z,32
2017-12-05T11:08:49.242Z,32
2017-12-05T11:09:57.328Z,32
2017-12-05T11:11:05.421Z,40
2017-12-05T11:12:13.534Z,40
2017-12-05T11:13:21.593Z,44
2017-12-05T11:14:29.679Z,48
2017-12-05T11:15:37.770Z,56
2017-12-05T11:16:45.851Z,56
2017-12-05T11:17:53.936Z,60
2017-12-05T11:19:02.024Z,72
2017-12-05T11:20:10.109Z,60
2017-12-05T11:21:18.192Z,52
2017-12-05T11:22:26.281Z,44
2017-12-05T11:23:34.371Z,40
2017-12-05T11:24:42.452Z,36
2017-12-05T11:25:50.535Z,36
2017-12-05T11:26:58.622Z,32
2017-12-05T11:28:06.709Z,28
2017-12-05T11:29:14.796Z,28
2017-12-05T11:30:22.879Z,24
2017-12-05T11:31:30.963Z,28
2017-12-05T11:32:39.049Z,24
2017-12-05T11:33:47.310Z,20
2017-12-05T11:34:55.240Z,20
2017-12-05T11:36:03.325Z,24
2017-12-05T11:37:11.397Z,20
2017-12-05T11:38:19.482Z,20
2017-12-05T11:39:27.566Z,20
2017-12-05T11:40:35.651Z,20
2017-12-05T11:41:43.738Z,24
2017-12-05T11:42:51.820Z,24
2017-12-05T11:43:59.908Z,32
2017-12-05T11:45:08.012Z,28
2017-12-05T11:46:16.080Z,40
2017-12-05T11:47:24.170Z,44
2017-12-05T11:48:32.254Z,44
2017-12-05T11:49:40.342Z,48
2017-12-05T11:50:48.491Z,48
2017-12-05T11:51:56.577Z,52
2017-12-05T11:53:04.661Z,68
2017-12-05T11:54:12.749Z,72
2017-12-05T11:55:20.833Z,76
2017-12-05T11:56:28.916Z,72
2017-12-05T11:57:37.004Z,68
2017-12-05T11:58:45.092Z,72
2017-12-05T11:59:53.177Z,80
2017-12-05T12:01:01.260Z,68
2017-12-05T12:02:09.349Z,64
2017-12-05T12:03:17.433Z,68
2017-12-05T12:04:25.527Z,64
2017-12-05T12:05:33.601Z,72
2017-12-05T12:06:41.686Z,68
2017-12-05T12:07:49.775Z,60
2017-12-05T12:08:57.860Z,56
2017-12-05T12:10:05.948Z,56
2017-12-05T12:11:14.110Z,52
2017-12-05T12:12:22.120Z,56
2017-12-05T12:13:30.207Z,52
2017-12-05T12:14:38.291Z,52
2017-12-05T12:15:46.375Z,52
2017-12-05T12:16:54.487Z,48
2017-12-05T12:18:02.557Z,52
2017-12-05T12:19:10.645Z,48
2017-12-05T12:20:18.727Z,48
2017-12-05T12:21:26.808Z,44
2017-12-05T12:22:34.896Z,40
2017-12-05T12:23:42.982Z,36
2017-12-05T12:24:51.067Z,36
2017-12-05T12:25:59.153Z,32
2017-12-05T12:27:07.238Z,32
2017-12-05T12:28:15.325Z,32
2017-12-05T12:29:23.407Z,32
2017-12-05T12:30:31.500Z,28
2017-12-05T12:31:39.611Z,28
2017-12-05T12:32:47.675Z,28
2017-12-05T12:33:55.761Z,32
2017-12-05T12:35:03.844Z,28
2017-12-05T12:36:12.010Z,28
2017-12-05T12:37:20.027Z,24
2017-12-05T12:38:28.114Z,24
2017-12-05T12:39:36.198Z,24
2017-12-05T12:40:44.282Z,24
2017-12-05T12:41:52.368Z,20
2017-12-05T12:43:00.461Z,20
2017-12-05T12:44:08.538Z,24
2017-12-05T12:45:16.625Z,20
2017-12-05T12:46:24.706Z,20
2017-12-05T12:47:32.792Z,24
2017-12-05T12:48:40.877Z,24
2017-12-05T12:49:48.964Z,24
2017-12-05T12:50:57.051Z,20
2017-12-05T12:52:05.135Z,20
2017-12-05T12:53:13.217Z,24
2017-12-05T12:54:21.307Z,20
2017-12-05T12:55:29.387Z,24
2017-12-05T12:56:37.472Z,24
2017-12-05T12:57:45.558Z,20
2017-12-05T12:58:53.643Z,20
2017-12-05T13:00:01.729Z,20
2017-12-05T13:01:09.812Z,24
2017-12-05T13:02:17.898Z,24
2017-12-05T13:03:25.982Z,20
2017-12-05T13:04:34.068Z,20
2017-12-05T13:05:42.153Z,20
2017-12-05T13:06:50.255Z,20
2017-12-05T13:07:58.322Z,24
2017-12-05T13:09:06.408Z,20
2017-12-05T13:10:14.540Z,16
2017-12-05T13:11:22.582Z,20
2017-12-05T13:12:30.679Z,20
2017-12-05T13:13:38.772Z,16
2017-12-05T13:14:46.862Z,20
2017-12-05T13:15:54.952Z,16
2017-12-05T13:17:03.036Z,20
2017-12-05T13:18:11.125Z,20
2017-12-05T13:19:19.211Z,16
2017-12-05T13:20:27.297Z,16
2017-12-05T13:21:35.398Z,20
2017-12-05T13:22:43.486Z,20
2017-12-05T13:23:51.570Z,20
2017-12-05T13:24:59.657Z,20
2017-12-05T13:26:07.741Z,20
2017-12-05T13:27:15.828Z,20
2017-12-05T13:28:23.908Z,20
2017-12-05T13:29:32.000Z,16
2017-12-05T13:30:40.089Z,20
2017-12-05T13:31:48.176Z,20
2017-12-05T13:32:56.267Z,20
2017-12-05T13:34:04.367Z,16
2017-12-05T13:35:12.461Z,20
2017-12-05T13:36:20.547Z,20
2017-12-05T13:37:28.633Z,20
2017-12-05T13:38:36.716Z,20
2017-12-05T13:39:44.800Z,16
2017-12-05T13:40:52.885Z,16
2017-12-05T13:42:00.967Z,16
2017-12-05T13:43:09.076Z,16
2017-12-05T13:44:17.139Z,16
2017-12-05T13:45:25.270Z,16
2017-12-05T13:46:33.309Z,16
2017-12-05T13:47:41.393Z,16
2017-12-05T13:48:49.510Z,16
2017-12-05T13:49:57.574Z,16
2017-12-05T13:51:05.648Z,16
2017-12-05T13:52:13.731Z,16
2017-12-05T13:53:21.816Z,16
2017-12-05T13:54:29.900Z,12
2017-12-05T13:55:37.984Z,12
2017-12-05T13:56:46.068Z,12
2017-12-05T13:57:54.154Z,16
2017-12-05T13:59:02.242Z,16
2017-12-05T14:00:10.321Z,12
2017-12-05T14:01:18.414Z,16
2017-12-05T14:02:26.491Z,12
2017-12-05T14:03:34.576Z,12
2017-12-05T14:04:42.660Z,8
2017-12-05T14:05:50.745Z,8
2017-12-05T14:06:58.830Z,12
2017-12-05T14:08:06.915Z,12
2017-12-05T14:09:15.008Z,12
2017-12-05T14:10:23.100Z,8
2017-12-05T14:11:31.450Z,8
2017-12-05T14:12:39.536Z,8
2017-12-05T14:13:47.618Z,8
2017-12-05T14:14:55.701Z,8
2017-12-05T14:16:03.786Z,8
2017-12-05T14:17:11.869Z,12
2017-12-05T14:18:19.954Z,8
2017-12-05T14:19:28.043Z,8
2017-12-05T14:20:36.149Z,12
2017-12-05T14:21:44.214Z,8
2017-12-05T14:22:52.292Z,12
2017-12-05T14:24:00.379Z,12
2017-12-05T14:25:08.464Z,12
2017-12-05T14:26:16.546Z,12
2017-12-05T14:27:24.632Z,8
2017-12-05T14:28:32.722Z,8
2017-12-05T14:29:40.798Z,8
2017-12-05T14:30:48.886Z,12
2017-12-05T14:31:56.989Z,12
2017-12-05T14:33:05.062Z,12
2017-12-05T14:34:13.151Z,12
2017-12-05T14:35:21.229Z,8
2017-12-05T14:36:29.319Z,12
2017-12-05T14:37:37.402Z,8
2017-12-05T14:38:45.493Z,12
2017-12-05T14:39:53.569Z,8
2017-12-05T14:41:01.663Z,12
2017-12-05T14:42:09.748Z,12
2017-12-05T14:43:17.835Z,12
2017-12-05T14:44:25.917Z,12
2017-12-05T14:45:34.000Z,12
2017-12-05T14:46:42.085Z,8
2017-12-05T14:47:50.175Z,8
2017-12-05T14:48:58.255Z,8
2017-12-05T14:50:06.341Z,8
2017-12-05T14:51:14.422Z,8
2017-12-05T14:52:22.760Z,8
2017-12-05T14:53:30.842Z,4
2017-12-05T14:54:38.928Z,8
2017-12-05T14:55:47.012Z,8
2017-12-05T14:56:55.324Z,4
2017-12-05T14:58:03.183Z,8
2017-12-05T14:59:11.283Z,4
2017-12-05T15:00:19.347Z,8
2017-12-05T15:01:27.434Z,4
2017-12-05T15:02:35.520Z,8
2017-12-05T15:03:43.605Z,4
2017-12-05T15:04:51.689Z,4
2017-12-05T15:05:59.773Z,4
2017-12-05T15:07:07.858Z,4
2017-12-05T15:08:15.943Z,4
2017-12-05T15:09:24.027Z,4
2017-12-05T15:10:32.114Z,4
2017-12-05T15:11:40.195Z,4
2017-12-05T15:12:48.278Z,4
2017-12-05T15:13:56.366Z,0
2017-12-05T15:15:04.449Z,4
2017-12-05T15:16:12.532Z,4
2017-12-05T15:17:20.625Z,4
2017-12-05T15:18:28.703Z,4
2017-12-05T15:19:36.786Z,0
2017-12-05T15:20:44.873Z,4
2017-12-05T15:21:52.954Z,4
2017-12-05T15:23:01.046Z,0
2017-12-05T15:24:09.128Z,0
2017-12-05T15:25:17.211Z,0
2017-12-05T15:26:25.298Z,4
2017-12-05T15:27:33.382Z,4
2017-12-05T15:28:41.466Z,4
2017-12-05T15:29:49.550Z,0
2017-12-05T15:30:57.634Z,0
2017-12-05T15:32:05.717Z,0
2017-12-05T15:33:13.804Z,0
2017-12-05T15:34:21.888Z,0
2017-12-05T15:35:29.976Z,0
2017-12-05T15:36:38.061Z,0
2017-12-05T15:37:46.149Z,0
2017-12-05T15:38:54.236Z,0
2017-12-05T15:40:02.314Z,0
2017-12-05T15:41:10.402Z,0
2017-12-05T15:42:18.818Z,0
2017-12-05T15:43:26.900Z,0
2017-12-05T15:44:34.988Z,0
2017-12-05T15:45:43.095Z,0
2017-12-05T15:46:51.158Z,0
2017-12-05T15:47:59.242Z,0
2017-12-05T15:49:07.328Z,0
2017-12-05T15:50:15.412Z,0
2017-12-05T15:51:23.508Z,0
2017-12-05T15:52:31.590Z,0
2017-12-05T15:53:39.672Z,0
2017-12-05T15:54:47.758Z,0
2017-12-05T15:55:55.844Z,0
2017-12-05T15:57:03.928Z,0
2017-12-05T15:58:12.026Z,0
2017-12-05T15:59:20.099Z,0
2017-12-05T16:00:28.183Z,0
2017-12-05T16:01:36.268Z,0
2017-12-05T16:02:44.355Z,0
2017-12-05T16:03:52.440Z,0
2017-12-05T16:05:00.578Z,0
2017-12-05T16:06:08.610Z,0
2017-12-05T16:07:16.695Z,0
2017-12-05T16:08:24.781Z,0
2017-12-05T16:09:32.870Z,0
2017-12-05T16:10:40.956Z,0
2017-12-05T16:11:49.048Z,0
2017-12-05T16:12:57.138Z,0
2017-12-05T16:14:05.228Z,0
2017-12-05T16:15:13.333Z,0
2017-12-05T16:16:21.394Z,0
2017-12-05T16:17:29.480Z,0
2017-12-05T16:18:37.565Z,0
2017-12-05T16:19:45.650Z,0
2017-12-05T16:20:53.737Z,0
2017-12-05T16:22:01.824Z,0
2017-12-05T16:23:09.910Z,0
2017-12-05T16:24:17.995Z,0
2017-12-05T16:25:26.101Z,0
2017-12-05T16:26:34.183Z,0
2017-12-05T16:27:42.272Z,0
2017-12-05T16:28:50.339Z,0
2017-12-05T16:29:58.424Z,0
2017-12-05T16:31:06.518Z,0
2017-12-05T16:32:14.612Z,0